Niagara, Wisconsin
Current Conditions -  °F | °C
As of 10:54 AM on Tuesday 27 Jan 2015 (Local Time) from KIMT Reporting Station
Overcast Overcast  
Wind Chill: 12°   Ceiling: 1800
Heat Index: 19°   Visibility: 8mi
Dew Point: 15°   Wind: 5mph
Humidity: 85%   Direction: 100°E
Pressure: 30.18"   Gusts: NA
Location:  45.77°N, 87.99°W
Report Text: KIMT 271654Z AUTO 10004KT 8SM BKN018 OVC024 M07/M09 A3018 RMK AO2 SLP244 T10721094
Loading
Personal Weather Stations






























Interactive Weather Map New forecast layout! Learn more

10-Day Weather Forecast

Advertisements
Track Severe Weather on mobile